Time;durP1;ratioP1;P1;durP2;ratioP2;P2;SDS_P1;SDS_P2;PMS_P1;PMS_P2;Temp;Humidity;BMP_temperature;BMP_pressure;BME280_temperature;BME280_humidity;BME280_pressure;Samples;Min_cycle;Max_cycle;Signal;HPM_P1;HPM_P2
2023/01/06 00:01:32;;;;;;;31.00;14.02;;;10.30;99.90;;;;;;5030711;28;20075;-68
2023/01/06 00:03:58;;;;;;;31.98;15.18;;;10.30;99.90;;;;;;5029982;28;20069;-68
2023/01/06 00:06:29;;;;;;;37.50;15.07;;;10.40;99.90;;;;;;5029643;28;20069;-69
2023/01/06 00:08:57;;;;;;;36.63;15.27;;;10.30;99.90;;;;;;5029638;28;20053;-68
2023/01/06 00:11:24;;;;;;;37.22;16.33;;;10.40;99.90;;;;;;5029434;28;20057;-69
2023/01/06 00:13:50;;;;;;;35.03;15.13;;;10.30;99.90;;;;;;5028373;28;20047;-68
2023/01/06 00:16:18;;;;;;;34.33;14.75;;;10.40;99.90;;;;;;5030322;28;20056;-68
2023/01/06 00:18:44;;;;;;;37.28;15.40;;;10.40;99.90;;;;;;5032014;28;20038;-68
2023/01/06 00:21:12;;;;;;;32.65;14.70;;;10.40;99.90;;;;;;5034729;28;20034;-69
2023/01/06 00:23:38;;;;;;;28.17;13.65;;;10.40;99.90;;;;;;5034356;28;20037;-68
2023/01/06 00:26:05;;;;;;;30.55;14.55;;;10.40;99.90;;;;;;5032527;28;20120;-67
2023/01/06 00:28:31;;;;;;;31.45;12.55;;;10.40;99.90;;;;;;5034269;28;20081;-67
2023/01/06 00:30:57;;;;;;;28.25;13.00;;;10.40;99.90;;;;;;5034250;28;20108;-67
2023/01/06 00:33:24;;;;;;;26.48;13.23;;;10.40;99.90;;;;;;5032754;28;20145;-68
2023/01/06 00:35:50;;;;;;;32.30;15.13;;;10.40;99.90;;;;;;5033672;28;20037;-68
2023/01/06 00:38:16;;;;;;;22.65;12.18;;;10.40;99.90;;;;;;5034157;28;20041;-68
2023/01/06 00:40:41;;;;;;;26.13;13.25;;;10.40;99.90;;;;;;5034194;28;20056;-68
2023/01/06 00:43:07;;;;;;;22.08;10.93;;;10.40;99.90;;;;;;5033795;28;20037;-68
2023/01/06 00:45:32;;;;;;;27.50;11.40;;;10.50;99.90;;;;;;5033381;28;20037;-69
2023/01/06 00:47:58;;;;;;;23.90;11.95;;;10.40;99.90;;;;;;5033944;28;20128;-68
2023/01/06 00:50:23;;;;;;;29.02;10.95;;;10.40;99.90;;;;;;5032857;28;20072;-68
2023/01/06 00:52:49;;;;;;;19.30;10.77;;;10.40;99.90;;;;;;5033843;28;20041;-68
2023/01/06 00:55:15;;;;;;;27.58;10.60;;;10.40;99.90;;;;;;5032969;28;20041;-68
2023/01/06 00:57:40;;;;;;;20.92;10.52;;;10.40;99.90;;;;;;5033617;28;20073;-69
2023/01/06 01:00:08;;;;;;;17.10;9.25;;;10.50;99.90;;;;;;5033323;28;20037;-67
2023/01/06 01:02:34;;;;;;;18.00;8.95;;;10.50;99.90;;;;;;5033445;28;20081;-68
2023/01/06 01:05:00;;;;;;;17.83;9.02;;;10.50;99.90;;;;;;5032934;28;20037;-68
2023/01/06 01:07:25;;;;;;;17.52;8.27;;;10.50;99.90;;;;;;5032137;28;20060;-68
2023/01/06 01:09:51;;;;;;;17.17;8.73;;;10.50;99.90;;;;;;5033445;28;20045;-68
2023/01/06 01:12:16;;;;;;;12.70;8.05;;;10.50;99.90;;;;;;5033370;28;20041;-68
2023/01/06 01:14:42;;;;;;;18.17;8.07;;;10.40;99.90;;;;;;5032458;28;20379;-68
2023/01/06 01:17:09;;;;;;;12.02;7.22;;;10.50;99.90;;;;;;5033256;28;20045;-68
2023/01/06 01:19:36;;;;;;;20.02;7.80;;;10.50;99.90;;;;;;5033392;28;20111;-68
2023/01/06 01:22:02;;;;;;;15.07;7.75;;;10.50;99.90;;;;;;5033264;28;20052;-68
2023/01/06 01:24:27;;;;;;;17.25;7.60;;;10.40;99.90;;;;;;5032518;28;20089;-68
2023/01/06 01:26:53;;;;;;;13.68;6.47;;;10.40;99.90;;;;;;5033145;28;20033;-68
2023/01/06 01:29:19;;;;;;;13.48;8.30;;;10.50;99.90;;;;;;5032022;28;20124;-68
2023/01/06 01:31:45;;;;;;;15.38;7.25;;;10.40;99.90;;;;;;5032864;28;20040;-67
2023/01/06 01:34:13;;;;;;;17.70;6.68;;;10.50;99.90;;;;;;5032385;28;20056;-68
2023/01/06 01:36:40;;;;;;;10.45;5.90;;;10.50;99.90;;;;;;5032800;28;20171;-68
2023/01/06 01:39:06;;;;;;;12.75;6.18;;;10.40;99.90;;;;;;5032857;28;20057;-68
2023/01/06 01:41:31;;;;;;;10.82;6.65;;;10.40;99.90;;;;;;5032833;28;20033;-68
2023/01/06 01:44:00;;;;;;;10.27;6.28;;;10.50;99.90;;;;;;5031845;28;20069;-68
2023/01/06 01:46:30;;;;;;;14.50;7.25;;;10.40;99.90;;;;;;5032813;28;20045;-68
2023/01/06 01:49:04;;;;;;;9.98;6.18;;;10.40;99.90;;;;;;5033044;28;20052;-68
2023/01/06 01:51:36;;;;;;;11.60;6.05;;;10.40;99.90;;;;;;5032719;28;20115;-68
2023/01/06 01:54:06;;;;;;;11.13;7.15;;;10.40;99.90;;;;;;5031872;28;20049;-68
2023/01/06 01:56:35;;;;;;;9.40;5.65;;;10.40;99.90;;;;;;5032579;28;20414;-68
2023/01/06 01:59:10;;;;;;;12.45;6.88;;;10.40;99.90;;;;;;5032346;28;20418;-68
2023/01/06 02:01:36;;;;;;;13.45;6.90;;;10.40;99.90;;;;;;5032614;28;20041;-69
2023/01/06 02:04:02;;;;;;;14.45;6.55;;;10.40;99.90;;;;;;5031624;28;20039;-68
2023/01/06 02:06:28;;;;;;;11.20;5.63;;;10.40;99.90;;;;;;5031386;28;20073;-68
2023/01/06 02:09:11;;;;;;;8.25;5.57;;;10.40;99.90;;;;;;5032421;28;20053;-69
2023/01/06 02:11:37;;;;;;;7.80;5.43;;;10.40;99.90;;;;;;5032590;28;20056;-68
2023/01/06 02:14:13;;;;;;;12.38;5.97;;;10.40;99.90;;;;;;5031492;28;20068;-68
2023/01/06 02:17:04;;;;;;;9.93;5.57;;;10.40;99.90;;;;;;5032565;28;20459;-68
2023/01/06 02:20:09;;;;;;;8.77;5.47;;;10.40;99.90;;;;;;5032130;28;20045;-68
2023/01/06 02:23:10;;;;;;;10.02;5.82;;;10.40;99.90;;;;;;5031506;28;20159;-68
2023/01/06 02:25:50;;;;;;;10.55;5.88;;;10.40;99.90;;;;;;5031255;28;20124;-68
2023/01/06 02:28:43;;;;;;;10.40;6.20;;;10.40;99.90;;;;;;5032016;28;20080;-68
2023/01/06 02:31:40;;;;;;;11.10;5.55;;;10.40;99.90;;;;;;5030602;28;20052;-68
2023/01/06 02:34:15;;;;;;;11.48;5.80;;;10.40;99.90;;;;;;5030912;28;20053;-68
2023/01/06 02:37:03;;;;;;;9.15;5.40;;;10.40;99.90;;;;;;5031790;28;20037;-69
2023/01/06 02:39:42;;;;;;;10.35;5.05;;;10.40;99.90;;;;;;5030261;28;20112;-68
2023/01/06 02:42:31;;;;;;;7.20;4.85;;;10.40;99.90;;;;;;5031600;28;20038;-68
2023/01/06 02:45:09;;;;;;;10.77;5.15;;;10.40;99.90;;;;;;5030812;28;20065;-69
2023/01/06 02:47:49;;;;;;;8.27;5.15;;;10.40;99.90;;;;;;5031578;28;20045;-67
2023/01/06 02:50:38;;;;;;;7.43;4.35;;;10.40;99.90;;;;;;5030456;28;20056;-68
2023/01/06 02:53:38;;;;;;;9.48;4.82;;;10.50;99.90;;;;;;5031810;28;20047;-68
2023/01/06 02:56:04;;;;;;;5.97;4.60;;;10.40;99.90;;;;;;5030697;28;20083;-68
2023/01/06 02:58:54;;;;;;;7.93;4.90;;;10.40;99.90;;;;;;5031465;28;20073;-68
2023/01/06 03:01:23;;;;;;;9.07;5.07;;;10.40;99.90;;;;;;5031577;28;20048;-68
2023/01/06 03:03:50;;;;;;;9.90;5.07;;;10.40;99.90;;;;;;5030797;28;20037;-68
2023/01/06 03:06:25;;;;;;;10.63;5.55;;;10.40;99.90;;;;;;5028803;28;20080;-68
2023/01/06 03:08:53;;;;;;;7.50;5.25;;;10.40;99.90;;;;;;5031610;28;20371;-68
2023/01/06 03:11:19;;;;;;;6.30;5.07;;;10.40;99.90;;;;;;5031065;28;20037;-68
2023/01/06 03:13:58;;;;;;;8.80;5.53;;;10.50;99.90;;;;;;5030610;28;20083;-68
2023/01/06 03:16:23;;;;;;;9.60;6.60;;;10.40;99.90;;;;;;5031064;28;20132;-68
2023/01/06 03:18:51;;;;;;;11.90;5.55;;;10.40;99.90;;;;;;5030970;28;20124;-68
2023/01/06 03:21:24;;;;;;;8.38;6.13;;;10.40;99.90;;;;;;5029752;28;20041;-68
2023/01/06 03:23:50;;;;;;;9.60;6.38;;;10.40;99.90;;;;;;5028773;28;20636;-68
2023/01/06 03:26:16;;;;;;;10.88;6.43;;;10.40;99.90;;;;;;5031170;28;20049;-68
2023/01/06 03:28:42;;;;;;;9.68;5.72;;;10.40;99.90;;;;;;5030907;28;20124;-68
2023/01/06 03:31:30;;;;;;;9.40;6.50;;;10.40;99.90;;;;;;5030895;28;20079;-67
2023/01/06 03:34:23;;;;;;;13.80;7.63;;;10.40;99.90;;;;;;5028815;28;20053;-69
2023/01/06 03:36:53;;;;;;;12.23;7.55;;;10.40;99.90;;;;;;5030909;28;20048;-68
2023/01/06 03:39:51;;;;;;;14.50;8.60;;;10.40;99.90;;;;;;5030565;28;20044;-68
2023/01/06 03:45:34;;;;;;;13.43;8.98;;;10.40;99.90;;;;;;5028695;28;20053;-68
2023/01/06 03:48:21;;;;;;;16.13;9.07;;;10.40;99.90;;;;;;5029780;28;20521;-68
2023/01/06 03:50:58;;;;;;;15.65;8.65;;;10.40;99.90;;;;;;5030899;28;20046;-68
2023/01/06 03:53:50;;;;;;;11.07;9.05;;;10.40;99.90;;;;;;5033544;28;20394;-68
2023/01/06 03:56:29;;;;;;;14.65;8.15;;;10.30;99.90;;;;;;5031441;28;20080;-68
2023/01/06 03:59:06;;;;;;;14.65;9.65;;;10.40;99.90;;;;;;5033282;28;20099;-68
2023/01/06 04:01:32;;;;;;;11.63;9.05;;;10.40;99.90;;;;;;5035065;28;20076;-67
2023/01/06 04:04:00;;;;;;;13.30;8.88;;;10.30;99.90;;;;;;5034120;28;20040;-68
2023/01/06 04:06:26;;;;;;;15.57;8.65;;;10.30;99.90;;;;;;5049614;28;20041;-67
2023/01/06 04:08:51;;;;;;;11.48;8.23;;;10.30;99.90;;;;;;5054671;28;20091;-68
2023/01/06 04:14:02;;;;;;;14.88;8.15;;;10.30;99.90;;;;;;5053888;28;20060;-68
2023/01/06 04:16:27;;;;;;;13.45;7.97;;;10.30;99.90;;;;;;5054490;28;20037;-68
2023/01/06 04:18:53;;;;;;;11.82;8.23;;;10.40;99.90;;;;;;5054589;28;20489;-67
2023/01/06 04:21:18;;;;;;;9.15;7.45;;;10.40;99.90;;;;;;5054494;28;20067;-67
2023/01/06 04:23:44;;;;;;;9.88;7.10;;;10.40;99.90;;;;;;5053649;28;20041;-69
2023/01/06 04:26:10;;;;;;;8.85;7.55;;;10.40;99.90;;;;;;5052721;28;20434;-67
2023/01/06 04:28:35;;;;;;;10.90;6.80;;;10.40;99.90;;;;;;5054079;28;20072;-67
2023/01/06 04:31:01;;;;;;;9.93;7.00;;;10.40;99.90;;;;;;5054315;28;20072;-68
2023/01/06 04:33:28;;;;;;;8.27;6.55;;;10.30;99.90;;;;;;5054111;28;20459;-68
2023/01/06 04:35:53;;;;;;;8.52;6.88;;;10.40;99.90;;;;;;5053526;28;20029;-68
2023/01/06 04:38:19;;;;;;;8.38;5.95;;;10.40;99.90;;;;;;5054112;28;20090;-67
2023/01/06 04:40:45;;;;;;;6.15;5.55;;;10.30;99.90;;;;;;5054219;28;20127;-67
2023/01/06 04:43:14;;;;;;;8.07;6.65;;;10.40;99.90;;;;;;5053885;28;20064;-67
2023/01/06 04:45:41;;;;;;;7.53;5.30;;;10.40;99.90;;;;;;5053344;28;20048;-68
2023/01/06 04:48:07;;;;;;;6.32;5.57;;;10.40;99.90;;;;;;5053968;28;20090;-68
2023/01/06 04:50:33;;;;;;;8.95;5.25;;;10.40;99.90;;;;;;5054013;28;20040;-68
2023/01/06 04:52:59;;;;;;;5.60;4.90;;;10.40;99.90;;;;;;5053776;28;20056;-68
2023/01/06 04:55:24;;;;;;;8.70;5.22;;;10.40;99.90;;;;;;5053122;28;20044;-67
2023/01/06 04:57:50;;;;;;;5.43;4.65;;;10.40;99.90;;;;;;5053492;28;20036;-67
2023/01/06 05:00:16;;;;;;;9.30;4.80;;;10.40;99.90;;;;;;5053434;28;20068;-69
2023/01/06 05:02:42;;;;;;;5.25;3.88;;;10.40;99.90;;;;;;5053530;28;20041;-69
2023/01/06 05:05:09;;;;;;;6.50;4.20;;;10.40;99.90;;;;;;5052651;28;20076;-69
2023/01/06 05:07:35;;;;;;;7.70;4.30;;;10.40;99.90;;;;;;5052601;28;20040;-68
2023/01/06 05:10:00;;;;;;;5.35;3.80;;;10.40;99.90;;;;;;5053127;28;20091;-68
2023/01/06 05:12:26;;;;;;;7.13;3.70;;;10.40;99.90;;;;;;5053411;28;20124;-67
2023/01/06 05:14:51;;;;;;;6.53;4.20;;;10.40;99.90;;;;;;5052600;28;20045;-68
2023/01/06 05:17:17;;;;;;;5.50;3.78;;;10.40;99.90;;;;;;5053504;28;20175;-68
2023/01/06 05:19:43;;;;;;;6.53;3.78;;;10.40;99.90;;;;;;5053286;28;20047;-68
2023/01/06 05:22:10;;;;;;;5.68;3.88;;;10.40;99.90;;;;;;5053381;28;20045;-67
2023/01/06 05:24:35;;;;;;;5.25;3.45;;;10.40;99.90;;;;;;5052250;28;20421;-68
2023/01/06 05:27:01;;;;;;;4.80;3.20;;;10.40;99.90;;;;;;5053495;28;20052;-68
2023/01/06 05:29:26;;;;;;;4.85;3.33;;;10.40;99.90;;;;;;5053091;28;20455;-67
2023/01/06 05:31:52;;;;;;;4.55;3.20;;;10.40;99.90;;;;;;5053090;28;20041;-68
2023/01/06 05:34:18;;;;;;;4.35;3.17;;;10.40;99.90;;;;;;5051216;28;20079;-68
2023/01/06 05:36:43;;;;;;;5.13;3.97;;;10.40;99.90;;;;;;5052899;28;20056;-68
2023/01/06 05:39:09;;;;;;;5.03;3.38;;;10.40;99.90;;;;;;5052999;28;20041;-68
2023/01/06 05:41:34;;;;;;;4.03;3.38;;;10.40;99.90;;;;;;5052952;28;20041;-69
2023/01/06 05:44:00;;;;;;;3.45;2.92;;;10.50;99.90;;;;;;5051916;28;20128;-67
2023/01/06 05:46:25;;;;;;;8.02;3.30;;;10.50;99.90;;;;;;5052488;28;20144;-68
2023/01/06 05:48:51;;;;;;;4.15;3.55;;;10.40;99.90;;;;;;5052668;28;20124;-68
2023/01/06 05:51:16;;;;;;;10.50;3.28;;;10.50;99.90;;;;;;5052480;28;20045;-68
2023/01/06 05:53:44;;;;;;;5.13;3.13;;;10.50;99.90;;;;;;5051927;28;20037;-68
2023/01/06 05:56:13;;;;;;;5.18;3.95;;;10.50;99.90;;;;;;5052431;28;20043;-67
2023/01/06 05:58:42;;;;;;;5.35;3.88;;;10.50;99.90;;;;;;5052468;28;20063;-67
2023/01/06 06:01:19;;;;;;;4.05;3.45;;;10.50;99.90;;;;;;5052540;28;20033;-68
2023/01/06 06:03:44;;;;;;;3.83;3.22;;;10.50;99.90;;;;;;5051715;28;20091;-69
2023/01/06 06:06:10;;;;;;;5.05;3.30;;;10.50;99.90;;;;;;5051914;28;20069;-67
2023/01/06 06:08:36;;;;;;;7.95;3.30;;;10.50;99.90;;;;;;5052387;28;20052;-68
2023/01/06 06:11:12;;;;;;;6.18;3.30;;;10.50;99.90;;;;;;5052260;28;20051;-68
2023/01/06 06:13:43;;;;;;;5.05;3.65;;;10.50;99.90;;;;;;5032128;28;20049;-67
2023/01/06 06:16:12;;;;;;;5.85;3.50;;;10.50;99.90;;;;;;5031790;28;20045;-68
2023/01/06 06:18:42;;;;;;;5.72;3.70;;;10.50;99.90;;;;;;5032048;28;20053;-68
2023/01/06 06:21:14;;;;;;;5.80;3.13;;;10.50;99.90;;;;;;5031181;28;20151;-67
2023/01/06 06:23:40;;;;;;;4.80;3.10;;;10.50;99.90;;;;;;5032034;28;20397;-69
2023/01/06 06:26:06;;;;;;;5.07;2.90;;;10.40;99.90;;;;;;5031754;28;20041;-67
2023/01/06 06:28:32;;;;;;;3.40;3.10;;;10.50;99.90;;;;;;5032189;28;20102;-68
2023/01/06 06:31:10;;;;;;;3.75;3.15;;;10.40;99.90;;;;;;5031960;28;20048;-68
2023/01/06 06:33:36;;;;;;;3.78;3.45;;;10.40;99.90;;;;;;5031672;28;20577;-68
2023/01/06 06:36:03;;;;;;;4.70;2.88;;;10.40;99.90;;;;;;5031293;28;20048;-68
2023/01/06 06:38:29;;;;;;;6.10;3.30;;;10.40;99.90;;;;;;5031555;28;20514;-67
2023/01/06 06:40:55;;;;;;;3.80;2.90;;;10.40;99.90;;;;;;5032052;28;20048;-67
2023/01/06 06:43:20;;;;;;;3.40;3.10;;;10.40;99.90;;;;;;5031631;28;20508;-68
2023/01/06 06:45:46;;;;;;;9.18;3.17;;;10.30;99.90;;;;;;5029562;28;20472;-68
2023/01/06 06:48:12;;;;;;;5.35;2.90;;;10.30;99.90;;;;;;5031917;28;20037;-69
2023/01/06 06:50:38;;;;;;;5.38;2.85;;;10.30;99.90;;;;;;5036266;28;20108;-68
2023/01/06 06:53:04;;;;;;;5.28;3.10;;;10.30;99.90;;;;;;5051664;28;20048;-69
2023/01/06 06:55:29;;;;;;;4.90;3.35;;;10.20;99.90;;;;;;5050656;28;20055;-67
2023/01/06 06:57:55;;;;;;;4.22;3.65;;;10.20;99.90;;;;;;5050121;28;20041;-68
2023/01/06 07:00:21;;;;;;;3.92;3.45;;;10.20;99.90;;;;;;5051045;28;20085;-68
2023/01/06 07:02:48;;;;;;;6.63;3.97;;;10.10;99.90;;;;;;5049978;28;20049;-70
2023/01/06 07:05:14;;;;;;;5.30;3.50;;;10.10;99.90;;;;;;5049411;28;20060;-68
2023/01/06 07:07:40;;;;;;;5.40;3.80;;;10.10;99.90;;;;;;5050284;28;20033;-68
2023/01/06 07:10:06;;;;;;;4.35;3.95;;;10.10;99.90;;;;;;5051047;28;20041;-68
2023/01/06 07:12:31;;;;;;;4.00;3.55;;;10.10;99.90;;;;;;5050989;28;20040;-67
2023/01/06 07:14:57;;;;;;;5.07;3.63;;;10.10;99.90;;;;;;5050223;28;20550;-67
2023/01/06 07:17:28;;;;;;;5.78;4.05;;;10.10;99.90;;;;;;5049822;28;20421;-68
2023/01/06 07:19:54;;;;;;;6.07;4.20;;;10.00;99.90;;;;;;5051264;28;20083;-68
2023/01/06 07:22:20;;;;;;;7.20;3.53;;;10.00;99.90;;;;;;5032856;28;20069;-67
2023/01/06 07:24:45;;;;;;;4.82;4.15;;;10.00;99.90;;;;;;5049122;28;20037;-68
2023/01/06 07:27:11;;;;;;;6.53;4.40;;;10.00;99.90;;;;;;5051025;28;20079;-68
2023/01/06 07:29:37;;;;;;;9.00;4.65;;;10.00;99.90;;;;;;5050779;28;20041;-68
2023/01/06 07:32:03;;;;;;;7.50;3.78;;;10.00;99.90;;;;;;5050673;28;20040;-67
2023/01/06 07:34:28;;;;;;;7.63;4.40;;;10.10;99.90;;;;;;5050008;28;20059;-68
2023/01/06 07:36:54;;;;;;;6.47;4.50;;;10.10;99.90;;;;;;5050644;28;20049;-68
2023/01/06 07:39:19;;;;;;;4.20;3.80;;;10.10;99.90;;;;;;5049268;28;20041;-67
2023/01/06 07:41:45;;;;;;;8.90;4.43;;;10.10;99.90;;;;;;5050759;28;20486;-68
2023/01/06 07:44:10;;;;;;;5.38;4.50;;;10.10;99.90;;;;;;5049983;28;20048;-68
2023/01/06 07:46:36;;;;;;;8.13;4.07;;;10.10;99.90;;;;;;5050559;28;20055;-68
2023/01/06 07:49:01;;;;;;;5.60;4.30;;;10.10;99.90;;;;;;5050914;28;20041;-68
2023/01/06 07:51:27;;;;;;;4.72;4.18;;;10.10;99.90;;;;;;5050647;28;20048;-69
2023/01/06 07:53:53;;;;;;;5.07;4.57;;;10.10;99.90;;;;;;5049722;28;20045;-68
2023/01/06 07:56:20;;;;;;;4.63;4.15;;;10.10;99.90;;;;;;5050637;28;20044;-68
2023/01/06 07:58:46;;;;;;;5.80;4.35;;;10.10;99.90;;;;;;5049041;28;20052;-68
2023/01/06 08:01:12;;;;;;;6.03;4.70;;;10.20;99.90;;;;;;5049290;28;20045;-68
2023/01/06 08:03:37;;;;;;;5.00;4.50;;;10.10;99.90;;;;;;5050359;28;20041;-68
2023/01/06 08:06:08;;;;;;;6.63;4.35;;;10.10;99.90;;;;;;5048988;28;20039;-68
2023/01/06 08:08:39;;;;;;;5.00;4.50;;;10.10;99.90;;;;;;5032444;28;20049;-68
2023/01/06 08:11:11;;;;;;;4.28;3.88;;;10.10;99.90;;;;;;5050546;28;20044;-68
2023/01/06 08:13:36;;;;;;;5.65;3.80;;;10.10;99.90;;;;;;5032315;28;20091;-68
2023/01/06 08:16:07;;;;;;;4.60;3.88;;;10.20;99.90;;;;;;5049579;28;20037;-67
2023/01/06 08:18:32;;;;;;;6.35;4.10;;;10.20;99.90;;;;;;5047669;28;20440;-67
2023/01/06 08:21:09;;;;;;;5.55;3.70;;;10.20;99.90;;;;;;5042585;28;20041;-68
2023/01/06 08:23:35;;;;;;;4.75;3.78;;;10.20;99.90;;;;;;5045505;28;20418;-67
2023/01/06 08:26:06;;;;;;;4.10;3.55;;;10.20;99.90;;;;;;5048043;28;20068;-68
2023/01/06 08:28:32;;;;;;;3.53;3.22;;;10.20;99.90;;;;;;5046532;28;20044;-68
2023/01/06 08:30:57;;;;;;;3.28;2.30;;;10.20;99.90;;;;;;5048372;28;20037;-68
2023/01/06 08:33:24;;;;;;;2.60;2.40;;;10.20;99.90;;;;;;5050492;28;20048;-68
2023/01/06 08:35:56;;;;;;;3.88;2.30;;;10.20;99.90;;;;;;5049619;28;20628;-68
2023/01/06 08:38:22;;;;;;;3.20;2.10;;;10.20;99.90;;;;;;5051278;28;20120;-67
2023/01/06 08:40:47;;;;;;;5.28;2.05;;;10.10;99.90;;;;;;5054242;28;20681;-68
2023/01/06 08:43:13;;;;;;;2.25;1.83;;;10.20;99.90;;;;;;5061979;28;20055;-68
2023/01/06 08:45:39;;;;;;;5.13;1.95;;;10.10;99.90;;;;;;5063482;28;20098;-69
2023/01/06 08:48:04;;;;;;;1.83;1.60;;;10.10;99.90;;;;;;5062611;28;20040;-69
2023/01/06 08:50:30;;;;;;;3.53;1.35;;;10.10;99.90;;;;;;5062505;28;20037;-68
2023/01/06 08:52:55;;;;;;;6.35;2.28;;;10.00;99.90;;;;;;5062296;28;20121;-68
2023/01/06 08:55:21;;;;;;;2.83;1.75;;;10.00;99.90;;;;;;5061744;28;20161;-68
2023/01/06 08:57:47;;;;;;;2.53;1.63;;;10.10;99.90;;;;;;5053671;28;20112;-68
2023/01/06 09:00:13;;;;;;;3.35;1.70;;;10.00;99.90;;;;;;5043784;28;20064;-68
2023/01/06 09:02:38;;;;;;;5.80;1.50;;;10.00;99.90;;;;;;5042302;28;20037;-67
2023/01/06 09:05:04;;;;;;;6.43;1.33;;;10.00;99.90;;;;;;5042942;28;20469;-68
2023/01/06 09:07:30;;;;;;;6.10;1.20;;;9.90;99.90;;;;;;5043532;28;20116;-68
2023/01/06 09:09:55;;;;;;;4.78;1.30;;;9.90;99.90;;;;;;5062326;28;20513;-68
2023/01/06 09:12:21;;;;;;;4.57;1.48;;;9.90;99.90;;;;;;5070301;28;20612;-70
2023/01/06 09:14:46;;;;;;;3.28;2.28;;;9.90;99.90;;;;;;5065613;28;20124;-68
2023/01/06 09:17:12;;;;;;;5.55;2.08;;;9.90;99.90;;;;;;5053361;28;20076;-68
2023/01/06 09:19:37;;;;;;;8.25;1.75;;;9.90;99.90;;;;;;5052847;28;20041;-68
2023/01/06 09:22:03;;;;;;;9.07;1.95;;;9.90;99.90;;;;;;5053165;28;20530;-69
2023/01/06 09:24:29;;;;;;;5.18;1.55;;;9.90;99.90;;;;;;5052533;28;20037;-68
2023/01/06 09:26:54;;;;;;;4.10;1.48;;;9.90;99.90;;;;;;5053185;28;20063;-68
2023/01/06 09:29:20;;;;;;;3.55;1.67;;;9.90;99.90;;;;;;5053344;28;20048;-68
2023/01/06 09:31:45;;;;;;;6.05;1.63;;;9.90;99.90;;;;;;5058446;28;20485;-69
2023/01/06 09:34:11;;;;;;;5.20;1.75;;;9.80;99.90;;;;;;5045050;28;20052;-68
2023/01/06 09:36:37;;;;;;;3.47;1.77;;;9.90;99.90;;;;;;5046267;28;20041;-68
2023/01/06 09:39:02;;;;;;;5.68;1.70;;;9.80;99.90;;;;;;5047722;28;20055;-68
2023/01/06 09:42:10;;;;;;;4.35;1.48;;;9.90;99.90;;;;;;5049131;28;20069;-68
2023/01/06 09:45:05;;;;;;;4.72;1.38;;;9.80;99.90;;;;;;5045197;28;20132;-68
2023/01/06 09:47:46;;;;;;;3.42;1.85;;;9.80;99.90;;;;;;5044605;28;20099;-68
2023/01/06 09:50:58;;;;;;;5.85;1.60;;;9.90;99.90;;;;;;5040195;28;20041;-68
2023/01/06 09:53:39;;;;;;;4.38;1.67;;;9.80;99.90;;;;;;5009240;28;20103;-68
2023/01/06 09:56:11;;;;;;;7.13;2.10;;;9.90;99.90;;;;;;5029721;28;20057;-68
2023/01/06 09:59:05;;;;;;;4.70;1.60;;;9.90;99.90;;;;;;5029952;28;20053;-68
2023/01/06 10:01:38;;;;;;;1.90;1.10;;;9.90;99.90;;;;;;5030171;28;20529;-67
2023/01/06 10:04:03;;;;;;;;;;;9.90;99.90;;;;;;5029645;28;20073;-68
2023/01/06 10:06:44;;;;;;;3.45;1.50;;;9.90;99.90;;;;;;5030118;28;20322;-68
2023/01/06 10:09:31;;;;;;;4.57;1.80;;;9.90;99.90;;;;;;5028832;28;20053;-67
2023/01/06 10:12:24;;;;;;;7.07;1.35;;;9.80;99.90;;;;;;5021228;28;20077;-68
2023/01/06 10:15:01;;;;;;;5.93;2.25;;;9.80;99.90;;;;;;5019977;28;20453;-68
2023/01/06 10:17:56;;;;;;;5.80;1.73;;;9.90;99.90;;;;;;5020333;28;20052;-68
2023/01/06 10:20:45;;;;;;;5.78;2.83;;;9.80;99.90;;;;;;5018030;28;20055;-68
2023/01/06 10:23:32;;;;;;;2.88;1.20;;;9.80;99.90;;;;;;5029507;28;20052;-68
2023/01/06 10:26:09;;;;;;;7.57;1.40;;;9.80;99.90;;;;;;5018547;28;20033;-68
2023/01/06 10:28:46;;;;;;;6.50;1.67;;;9.80;99.90;;;;;;5014500;28;20136;-67
2023/01/06 10:31:20;;;;;;;4.70;1.40;;;9.90;99.90;;;;;;5051044;28;20086;-68
2023/01/06 10:33:52;;;;;;;4.75;1.33;;;9.90;99.90;;;;;;5050275;28;20047;-70
2023/01/06 10:36:26;;;;;;;7.85;1.77;;;9.90;99.90;;;;;;5050555;28;20076;-70
2023/01/06 10:38:53;;;;;;;11.32;1.70;;;9.90;99.90;;;;;;5051580;28;20037;-72
2023/01/06 10:41:45;;;;;;;8.15;1.63;;;9.90;99.90;;;;;;5050291;28;20037;-71
2023/01/06 10:44:12;;;;;;;3.47;1.67;;;10.00;99.90;;;;;;5049093;28;20114;-70
2023/01/06 10:46:38;;;;;;;5.20;1.60;;;10.00;99.90;;;;;;5033656;28;20052;-72
2023/01/06 10:49:10;;;;;;;4.75;1.20;;;9.90;99.90;;;;;;5050137;28;20056;-70
2023/01/06 10:51:44;;;;;;;5.30;1.60;;;10.00;99.90;;;;;;5050270;28;20387;-70
2023/01/06 10:54:13;;;;;;;5.97;1.95;;;10.00;99.90;;;;;;5049261;28;20131;-70
2023/01/06 10:56:44;;;;;;;8.32;2.15;;;10.00;99.90;;;;;;5050096;28;20049;-70
2023/01/06 10:59:11;;;;;;;10.43;2.35;;;10.00;99.90;;;;;;5050978;28;20041;-70
2023/01/06 11:01:51;;;;;;;7.72;1.83;;;10.00;99.90;;;;;;5049694;28;20128;-70
2023/01/06 11:04:18;;;;;;;5.55;1.45;;;10.00;99.90;;;;;;5049468;28;20045;-70
2023/01/06 11:07:02;;;;;;;4.28;1.55;;;10.00;99.90;;;;;;5049533;28;20067;-70
2023/01/06 11:09:40;;;;;;;5.07;1.35;;;10.10;99.90;;;;;;5051308;28;20056;-70
2023/01/06 11:12:18;;;;;;;3.33;1.50;;;10.10;99.90;;;;;;5049657;28;20044;-70
2023/01/06 11:14:56;;;;;;;5.30;1.58;;;10.00;99.90;;;;;;5048996;28;20072;-70
2023/01/06 11:17:22;;;;;;;6.18;1.85;;;10.00;99.90;;;;;;5051303;28;20049;-70
2023/01/06 11:20:06;;;;;;;4.30;1.45;;;10.10;99.90;;;;;;5049847;28;20137;-70
2023/01/06 11:22:35;;;;;;;10.35;1.50;;;10.10;99.90;;;;;;5051167;28;20440;-70
2023/01/06 11:25:02;;;;;;;3.63;1.60;;;10.20;99.90;;;;;;5049222;28;20119;-70
2023/01/06 11:27:27;;;;;;;5.72;1.45;;;10.10;99.90;;;;;;5049832;28;20416;-70
2023/01/06 11:29:53;;;;;;;3.25;1.40;;;10.10;99.90;;;;;;5049659;28;20041;-70
2023/01/06 11:32:27;;;;;;;5.50;1.40;;;10.10;99.90;;;;;;5050644;28;20520;-71
2023/01/06 11:35:05;;;;;;;5.13;1.80;;;10.10;99.90;;;;;;5048903;28;20095;-69
2023/01/06 11:37:40;;;;;;;11.18;1.85;;;10.10;99.90;;;;;;5050801;28;20041;-69
2023/01/06 11:40:28;;;;;;;9.30;2.03;;;10.10;99.90;;;;;;5047910;28;20087;-69
2023/01/06 11:42:58;;;;;;;9.98;1.95;;;10.10;99.90;;;;;;5050898;28;20029;-69
2023/01/06 11:45:30;;;;;;;8.20;1.85;;;10.20;99.90;;;;;;5048761;28;20440;-69
2023/01/06 11:47:56;;;;;;;8.13;1.30;;;10.10;99.90;;;;;;5050483;28;20037;-69
2023/01/06 11:50:22;;;;;;;6.18;1.52;;;10.10;99.90;;;;;;5050722;28;20561;-69
2023/01/06 11:53:03;;;;;;;8.80;1.88;;;10.10;99.90;;;;;;5049098;28;20048;-67
2023/01/06 11:55:29;;;;;;;4.55;1.35;;;10.10;99.90;;;;;;5050125;28;20049;-68
2023/01/06 11:58:14;;;;;;;11.65;1.50;;;10.10;99.90;;;;;;5050812;28;20052;-68
2023/01/06 12:00:59;;;;;;;4.22;1.40;;;10.10;99.90;;;;;;5050824;28;20041;-68
2023/01/06 12:03:40;;;;;;;6.53;1.40;;;10.10;99.90;;;;;;5050389;28;20049;-68
2023/01/06 12:06:20;;;;;;;11.70;1.92;;;10.20;99.90;;;;;;5050161;28;20056;-67
2023/01/06 12:09:08;;;;;;;5.10;1.75;;;10.20;99.90;;;;;;5050542;28;20043;-68
2023/01/06 12:11:47;;;;;;;4.78;1.30;;;10.20;99.90;;;;;;5050666;28;20378;-67
2023/01/06 12:14:23;;;;;;;7.20;1.55;;;10.20;99.90;;;;;;5052101;28;20041;-67
2023/01/06 12:17:00;;;;;;;8.55;1.92;;;10.20;99.90;;;;;;5054583;28;20079;-67
2023/01/06 12:19:45;;;;;;;4.07;1.48;;;10.20;99.90;;;;;;5054453;28;20077;-67
2023/01/06 12:22:17;;;;;;;5.75;1.48;;;10.20;99.90;;;;;;5054676;28;20044;-68
2023/01/06 12:24:45;;;;;;;8.77;2.30;;;10.10;99.90;;;;;;5053851;28;20033;-68
2023/01/06 12:27:29;;;;;;;6.13;1.35;;;10.10;99.90;;;;;;5054662;28;20083;-67
2023/01/06 12:29:59;;;;;;;5.75;1.70;;;10.10;99.90;;;;;;5060744;28;20194;-67
2023/01/06 12:32:28;;;;;;;3.50;1.40;;;10.10;99.90;;;;;;5060639;28;20035;-67
2023/01/06 12:34:59;;;;;;;7.38;1.60;;;10.10;99.90;;;;;;5061222;28;20036;-67
2023/01/06 12:37:35;;;;;;;3.45;1.45;;;10.00;99.90;;;;;;5068640;28;20121;-68
2023/01/06 12:40:25;;;;;;;9.70;1.60;;;10.10;99.90;;;;;;5065765;28;20048;-69
2023/01/06 12:43:00;;;;;;;5.07;1.30;;;10.10;99.90;;;;;;5072577;28;20047;-68
2023/01/06 12:45:38;;;;;;;10.15;2.42;;;10.10;99.90;;;;;;5055784;28;20119;-67
2023/01/06 12:48:14;;;;;;;5.63;1.30;;;10.10;99.90;;;;;;5052358;28;20090;-68
2023/01/06 12:50:43;;;;;;;8.20;1.85;;;10.10;99.90;;;;;;5047995;28;20051;-68
2023/01/06 12:53:17;;;;;;;8.20;1.88;;;10.20;99.90;;;;;;5050005;28;20056;-67
2023/01/06 12:56:11;;;;;;;4.78;1.50;;;10.20;99.90;;;;;;5052281;28;20041;-67
2023/01/06 12:58:50;;;;;;;9.57;1.60;;;10.20;99.90;;;;;;5052077;28;20051;-68
2023/01/06 13:02:03;;;;;;;7.47;1.58;;;10.20;99.90;;;;;;5051328;28;20045;-69
2023/01/06 13:04:57;;;;;;;6.00;1.50;;;10.20;99.90;;;;;;5030762;28;20429;-68
2023/01/06 13:07:38;;;;;;;6.00;1.75;;;10.20;99.90;;;;;;5034025;28;20120;-69
2023/01/06 13:10:11;;;;;;;8.18;1.95;;;10.20;99.90;;;;;;5032216;28;20037;-69
2023/01/06 13:12:46;;;;;;;3.58;1.60;;;10.20;99.90;;;;;;5042635;28;20052;-67